Nbp Island — V2FH3 — position and weather

sailwx.info

Track history (hours):
 
Tides and Currents Weather Stations Pressure Air Temp Water Temp Dewpoint Dewpoint Depression Visibility Wind Speed Wind Dir Waves Ship Positions

Nbp Island

Last reported at 2014-Oct-19 20:18 UTC. Time now 2014-Oct-22 04:54 UTC.
Position N 49°52' W 003°14'.

Length 107 m; draft 7.7 m.

Type: Cargo ship. MMSI: 305674000.

Date/timePositionNaut miles runAvg speedWind from/ knotsBaromVisibWave heightAir tempDewpointWater temp
2014-Oct-19 20:18N 49°52' W 003°14'175 8.9
2014-Oct-19 00:33N 50°51' E 001°04'10 9.9
2014-Oct-18 23:34N 50°58' E 001°16'9 8.9
2014-Oct-18 22:33N 51°04' E 001°27'8 7.9
2014-Oct-18 21:33N 51°09' E 001°36'8 7.5
2014-Oct-18 20:33N 51°13' E 001°45'8 8.3
2014-Oct-18 19:33N 51°20' E 001°54'8 7.9
2014-Oct-18 18:33N 51°24' E 002°05'10 9.7
2014-Oct-18 17:33N 51°21' E 002°19'1110.2
2014-Oct-18 16:31N 51°23' E 002°36'1010.5
2014-Oct-18 15:33N 51°22' E 002°52'1311.6
2014-Oct-18 14:27N 51°25' E 003°13'1112.3
2014-Oct-18 13:33N 51°25' E 003°30'1010.0
2014-Oct-18 12:33N 51°22' E 003°45'1010.1
2014-Oct-18 11:34N 51°26' E 003°60'9 8.7
2014-Oct-18 10:33N 51°23' E 004°13'4 3.6
2014-Oct-18 09:33N 51°21' E 004°17'0 0.2
2014-Oct-18 08:33N 51°21' E 004°18'2 1.8
2014-Oct-18 07:34N 51°19' E 004°19'5 4.8
2014-Oct-18 06:33N 51°15' E 004°23'1 0.7
2014-Oct-18 05:33N 51°15' E 004°24'0 0.0
2014-Oct-18 04:33N 51°15' E 004°24'0 0.0
2014-Oct-18 03:33N 51°15' E 004°24'0 0.0
2014-Oct-18 02:33N 51°15' E 004°24'0 0.0
2014-Oct-18 01:33N 51°15' E 004°24'0 0.0
2014-Oct-18 00:33N 51°15' E 004°24'0 0.0
2014-Oct-17 23:33N 51°15' E 004°24'0 0.0
2014-Oct-17 22:33N 51°15' E 004°24'0 0.0
2014-Oct-17 21:33N 51°15' E 004°24'0 0.0
2014-Oct-17 20:33N 51°15' E 004°24'0 0.0
2014-Oct-17 19:33N 51°15' E 004°24'0 0.0
2014-Oct-17 18:33N 51°15' E 004°24'0 0.0
2014-Oct-17 17:33N 51°15' E 004°24'0 0.0
2014-Oct-17 16:33N 51°15' E 004°24'0 0.0
2014-Oct-17 15:33N 51°15' E 004°24'0 0.0
2014-Oct-17 14:33N 51°15' E 004°24'0 0.0
2014-Oct-17 13:33N 51°15' E 004°24'0 0.0
2014-Oct-17 12:33N 51°15' E 004°24'0 0.0
2014-Oct-17 11:33N 51°15' E 004°24'0 0.0
2014-Oct-17 10:33N 51°15' E 004°24'0 0.0
2014-Oct-17 09:33N 51°15' E 004°24'0 0.0
2014-Oct-17 08:33N 51°15' E 004°24'0 0.0
2014-Oct-17 07:33N 51°15' E 004°24'0 0.0
2014-Oct-17 06:33N 51°15' E 004°24'0 0.0
2014-Oct-17 05:33N 51°15' E 004°24'0 0.0
2014-Oct-17 04:33N 51°15' E 004°24'0 0.0
2014-Oct-17 03:33N 51°15' E 004°24'0 0.0
2014-Oct-17 02:33N 51°15' E 004°24'0 0.0
2014-Oct-17 01:33N 51°15' E 004°24'0 0.0
2014-Oct-17 00:33N 51°15' E 004°24'0 0.0
2014-Oct-16 23:33N 51°15' E 004°24'0 0.0
2014-Oct-16 22:33N 51°15' E 004°24'0 0.0
2014-Oct-16 21:33N 51°15' E 004°24'0 0.0
2014-Oct-16 20:33N 51°15' E 004°24'0 0.0
2014-Oct-16 19:33N 51°15' E 004°24'0 0.0
2014-Oct-16 18:33N 51°15' E 004°24'0 0.0
2014-Oct-16 17:33N 51°15' E 004°24'0 0.0
2014-Oct-16 16:33N 51°15' E 004°24'0 0.0
2014-Oct-16 15:33N 51°15' E 004°24'0 0.0
2014-Oct-16 14:33N 51°15' E 004°24'0 0.0
2014-Oct-16 13:33N 51°15' E 004°24'0 0.0
2014-Oct-16 12:33N 51°15' E 004°24'0 0.0
2014-Oct-16 11:33N 51°15' E 004°24'0 0.0
2014-Oct-16 10:33N 51°15' E 004°24'0 0.0
2014-Oct-16 09:33N 51°15' E 004°24'0 0.0
2014-Oct-16 08:33N 51°15' E 004°24'0 0.0
2014-Oct-16 07:33N 51°15' E 004°24'3 2.8
2014-Oct-16 06:33N 51°17' E 004°21'0 0.0
2014-Oct-16 05:33N 51°17' E 004°21'0 0.0
2014-Oct-16 04:33N 51°17' E 004°21'0 0.0
2014-Oct-16 03:33N 51°17' E 004°21'0 0.0
2014-Oct-16 02:27N 51°17' E 004°21'0 0.0
2014-Oct-16 01:33N 51°17' E 004°21'0 0.0
2014-Oct-16 00:30N 51°17' E 004°21'0 0.0
2014-Oct-15 23:33N 51°17' E 004°21'0 0.0
2014-Oct-15 22:33N 51°17' E 004°21'0 0.0
2014-Oct-15 21:33N 51°17' E 004°21'0 0.0
2014-Oct-15 20:33N 51°17' E 004°21'0 0.0
2014-Oct-15 19:33N 51°17' E 004°21'0 0.0
2014-Oct-15 18:33N 51°17' E 004°21'0 0.0
2014-Oct-15 17:27N 51°17' E 004°21'0 0.0
2014-Oct-15 16:30N 51°17' E 004°21'0 0.0
2014-Oct-15 15:33N 51°17' E 004°21'0 0.0
2014-Oct-15 14:33N 51°17' E 004°21'0 0.0
2014-Oct-15 13:31N 51°17' E 004°21'0 0.0
2014-Oct-15 12:28N 51°17' E 004°21'0 0.0
2014-Oct-15 11:31N 51°17' E 004°21'0 0.0
2014-Oct-15 10:31N 51°17' E 004°21'0 0.0
2014-Oct-15 09:31N 51°17' E 004°21'0 0.0
2014-Oct-15 08:31N 51°17' E 004°21'0 0.0
2014-Oct-15 07:31N 51°17' E 004°21'59 6.3
2014-Oct-14 22:04N 51°22' E 002°47'510.1
2014-Oct-14 21:33N 51°22' E 002°38'7 6.4
2014-Oct-14 20:28N 51°21' E 002°27'6 6.1
2014-Oct-14 19:33N 51°18' E 002°19'6 5.6
2014-Oct-14 18:32N 51°16' E 002°11'6 5.9
2014-Oct-14 17:33N 51°13' E 002°03'8 7.6
2014-Oct-14 16:33N 51°09' E 001°53'4 4.4
2014-Oct-14 15:33N 51°06' E 001°47'10 9.4
2014-Oct-14 14:28N 50°59' E 001°37'39 7.6
2014-Oct-14 09:18N 50°29' E 000°56'6 7.5
2014-Oct-14 08:33N 50°26' E 000°48'8 7.8
2014-Oct-14 07:32N 50°24' E 000°36'  
2014-Oct-09 21:33N 38°10' W 009°41'8 8.1
2014-Oct-09 20:33N 38°02' W 009°39'  
Track history (hours):
 
Tides and Currents Weather Stations Pressure Air Temp Water Temp Dewpoint Dewpoint Depression Visibility Wind Speed Wind Dir Waves Ship Positions

Nbp Island

Last reported at 2014-Oct-19 20:18 UTC. Time now 2014-Oct-22 04:54 UTC.
Position N 49°52' W 003°14'.

Length 107 m; draft 7.7 m.

Type: Cargo ship. MMSI: 305674000.

Date/timePositionNaut miles runAvg speedWind from/ knotsBaromVisibWave heightAir tempDewpointWater temp
2014-Oct-19 20:18N 49°52' W 003°14'175 8.9
2014-Oct-19 00:33N 50°51' E 001°04'10 9.9
2014-Oct-18 23:34N 50°58' E 001°16'9 8.9
2014-Oct-18 22:33N 51°04' E 001°27'8 7.9
2014-Oct-18 21:33N 51°09' E 001°36'8 7.5
2014-Oct-18 20:33N 51°13' E 001°45'8 8.3
2014-Oct-18 19:33N 51°20' E 001°54'8 7.9
2014-Oct-18 18:33N 51°24' E 002°05'10 9.7
2014-Oct-18 17:33N 51°21' E 002°19'1110.2
2014-Oct-18 16:31N 51°23' E 002°36'1010.5
2014-Oct-18 15:33N 51°22' E 002°52'1311.6
2014-Oct-18 14:27N 51°25' E 003°13'1112.3
2014-Oct-18 13:33N 51°25' E 003°30'1010.0
2014-Oct-18 12:33N 51°22' E 003°45'1010.1
2014-Oct-18 11:34N 51°26' E 003°60'9 8.7
2014-Oct-18 10:33N 51°23' E 004°13'4 3.6
2014-Oct-18 09:33N 51°21' E 004°17'0 0.2
2014-Oct-18 08:33N 51°21' E 004°18'2 1.8
2014-Oct-18 07:34N 51°19' E 004°19'5 4.8
2014-Oct-18 06:33N 51°15' E 004°23'1 0.7
2014-Oct-18 05:33N 51°15' E 004°24'0 0.0
2014-Oct-18 04:33N 51°15' E 004°24'0 0.0
2014-Oct-18 03:33N 51°15' E 004°24'0 0.0
2014-Oct-18 02:33N 51°15' E 004°24'0 0.0
2014-Oct-18 01:33N 51°15' E 004°24'0 0.0
2014-Oct-18 00:33N 51°15' E 004°24'0 0.0
2014-Oct-17 23:33N 51°15' E 004°24'0 0.0
2014-Oct-17 22:33N 51°15' E 004°24'0 0.0
2014-Oct-17 21:33N 51°15' E 004°24'0 0.0
2014-Oct-17 20:33N 51°15' E 004°24'0 0.0
2014-Oct-17 19:33N 51°15' E 004°24'0 0.0
2014-Oct-17 18:33N 51°15' E 004°24'0 0.0
2014-Oct-17 17:33N 51°15' E 004°24'0 0.0
2014-Oct-17 16:33N 51°15' E 004°24'0 0.0
2014-Oct-17 15:33N 51°15' E 004°24'0 0.0
2014-Oct-17 14:33N 51°15' E 004°24'0 0.0
2014-Oct-17 13:33N 51°15' E 004°24'0 0.0
2014-Oct-17 12:33N 51°15' E 004°24'0 0.0
2014-Oct-17 11:33N 51°15' E 004°24'0 0.0
2014-Oct-17 10:33N 51°15' E 004°24'0 0.0
2014-Oct-17 09:33N 51°15' E 004°24'0 0.0
2014-Oct-17 08:33N 51°15' E 004°24'0 0.0
2014-Oct-17 07:33N 51°15' E 004°24'0 0.0
2014-Oct-17 06:33N 51°15' E 004°24'0 0.0
2014-Oct-17 05:33N 51°15' E 004°24'0 0.0
2014-Oct-17 04:33N 51°15' E 004°24'0 0.0
2014-Oct-17 03:33N 51°15' E 004°24'0 0.0
2014-Oct-17 02:33N 51°15' E 004°24'0 0.0
2014-Oct-17 01:33N 51°15' E 004°24'0 0.0
2014-Oct-17 00:33N 51°15' E 004°24'0 0.0
2014-Oct-16 23:33N 51°15' E 004°24'0 0.0
2014-Oct-16 22:33N 51°15' E 004°24'0 0.0
2014-Oct-16 21:33N 51°15' E 004°24'0 0.0
2014-Oct-16 20:33N 51°15' E 004°24'0 0.0
2014-Oct-16 19:33N 51°15' E 004°24'0 0.0
2014-Oct-16 18:33N 51°15' E 004°24'0 0.0
2014-Oct-16 17:33N 51°15' E 004°24'0 0.0
2014-Oct-16 16:33N 51°15' E 004°24'0 0.0
2014-Oct-16 15:33N 51°15' E 004°24'0 0.0
2014-Oct-16 14:33N 51°15' E 004°24'0 0.0
2014-Oct-16 13:33N 51°15' E 004°24'0 0.0
2014-Oct-16 12:33N 51°15' E 004°24'0 0.0
2014-Oct-16 11:33N 51°15' E 004°24'0 0.0
2014-Oct-16 10:33N 51°15' E 004°24'0 0.0
2014-Oct-16 09:33N 51°15' E 004°24'0 0.0
2014-Oct-16 08:33N 51°15' E 004°24'0 0.0
2014-Oct-16 07:33N 51°15' E 004°24'3 2.8
2014-Oct-16 06:33N 51°17' E 004°21'0 0.0
2014-Oct-16 05:33N 51°17' E 004°21'0 0.0
2014-Oct-16 04:33N 51°17' E 004°21'0 0.0
2014-Oct-16 03:33N 51°17' E 004°21'0 0.0
2014-Oct-16 02:27N 51°17' E 004°21'0 0.0
2014-Oct-16 01:33N 51°17' E 004°21'0 0.0
2014-Oct-16 00:30N 51°17' E 004°21'0 0.0
2014-Oct-15 23:33N 51°17' E 004°21'0 0.0
2014-Oct-15 22:33N 51°17' E 004°21'0 0.0
2014-Oct-15 21:33N 51°17' E 004°21'0 0.0
2014-Oct-15 20:33N 51°17' E 004°21'0 0.0
2014-Oct-15 19:33N 51°17' E 004°21'0 0.0
2014-Oct-15 18:33N 51°17' E 004°21'0 0.0
2014-Oct-15 17:27N 51°17' E 004°21'0 0.0
2014-Oct-15 16:30N 51°17' E 004°21'0 0.0
2014-Oct-15 15:33N 51°17' E 004°21'0 0.0
2014-Oct-15 14:33N 51°17' E 004°21'0 0.0
2014-Oct-15 13:31N 51°17' E 004°21'0 0.0
2014-Oct-15 12:28N 51°17' E 004°21'0 0.0
2014-Oct-15 11:31N 51°17' E 004°21'0 0.0
2014-Oct-15 10:31N 51°17' E 004°21'0 0.0
2014-Oct-15 09:31N 51°17' E 004°21'0 0.0
2014-Oct-15 08:31N 51°17' E 004°21'0 0.0
2014-Oct-15 07:31N 51°17' E 004°21'59 6.3
2014-Oct-14 22:04N 51°22' E 002°47'510.1
2014-Oct-14 21:33N 51°22' E 002°38'7 6.4
2014-Oct-14 20:28N 51°21' E 002°27'6 6.1
2014-Oct-14 19:33N 51°18' E 002°19'6 5.6
2014-Oct-14 18:32N 51°16' E 002°11'6 5.9
2014-Oct-14 17:33N 51°13' E 002°03'8 7.6
2014-Oct-14 16:33N 51°09' E 001°53'4 4.4
2014-Oct-14 15:33N 51°06' E 001°47'10 9.4
2014-Oct-14 14:28N 50°59' E 001°37'39 7.6
2014-Oct-14 09:18N 50°29' E 000°56'6 7.5
2014-Oct-14 08:33N 50°26' E 000°48'8 7.8
2014-Oct-14 07:32N 50°24' E 000°36'  
2014-Oct-09 21:33N 38°10' W 009°41'8 8.1
2014-Oct-09 20:33N 38°02' W 009°39'  

Dump ship's entire track history